sensor_id;sensor_type;location;lat;lon;timestamp;P1;P2;P0
77515;PMS5003;66627;29.424;-98.496;2023-06-22T00:00:29;20;20;
77515;PMS5003;66627;29.424;-98.496;2023-06-22T00:02:55;24;20;
77515;PMS5003;66627;29.424;-98.496;2023-06-22T00:05:20;23;21;
77515;PMS5003;66627;29.424;-98.496;2023-06-22T00:07:46;23;22;
77515;PMS5003;66627;29.424;-98.496;2023-06-22T00:10:10;20;20;
77515;PMS5003;66627;29.424;-98.496;2023-06-22T00:12:35;24;24;
77515;PMS5003;66627;29.424;-98.496;2023-06-22T00:15:01;22;22;
77515;PMS5003;66627;29.424;-98.496;2023-06-22T00:17:27;21;21;
77515;PMS5003;66627;29.424;-98.496;2023-06-22T00:19:52;24;24;
77515;PMS5003;66627;29.424;-98.496;2023-06-22T00:22:18;25;24;
77515;PMS5003;66627;29.424;-98.496;2023-06-22T00:24:43;26;22;
77515;PMS5003;66627;29.424;-98.496;2023-06-22T00:27:08;23;22;
77515;PMS5003;66627;29.424;-98.496;2023-06-22T00:29:34;20;20;
77515;PMS5003;66627;29.424;-98.496;2023-06-22T00:31:59;19;19;
77515;PMS5003;66627;29.424;-98.496;2023-06-22T00:34:24;17;17;
77515;PMS5003;66627;29.424;-98.496;2023-06-22T00:36:50;16;15;
77515;PMS5003;66627;29.424;-98.496;2023-06-22T00:39:14;19;19;
77515;PMS5003;66627;29.424;-98.496;2023-06-22T00:41:40;21;20;
77515;PMS5003;66627;29.424;-98.496;2023-06-22T00:44:06;20;18;
77515;PMS5003;66627;29.424;-98.496;2023-06-22T00:46:31;21;19;
77515;PMS5003;66627;29.424;-98.496;2023-06-22T00:48:56;18;18;
77515;PMS5003;66627;29.424;-98.496;2023-06-22T00:51:22;19;17;
77515;PMS5003;66627;29.424;-98.496;2023-06-22T00:53:47;20;20;
77515;PMS5003;66627;29.424;-98.496;2023-06-22T00:56:13;24;24;
77515;PMS5003;66627;29.424;-98.496;2023-06-22T00:58:38;19;19;
77515;PMS5003;66627;29.424;-98.496;2023-06-22T01:01:03;26;25;
77515;PMS5003;66627;29.424;-98.496;2023-06-22T01:03:29;23;20;
77515;PMS5003;66627;29.424;-98.496;2023-06-22T01:05:54;24;23;
77515;PMS5003;66627;29.424;-98.496;2023-06-22T01:08:23;24;24;
77515;PMS5003;66627;29.424;-98.496;2023-06-22T01:10:46;22;21;
77515;PMS5003;66627;29.424;-98.496;2023-06-22T01:13:13;24;23;
77515;PMS5003;66627;29.424;-98.496;2023-06-22T01:15:36;21;20;
77515;PMS5003;66627;29.424;-98.496;2023-06-22T01:18:01;24;21;
77515;PMS5003;66627;29.424;-98.496;2023-06-22T01:20:27;20;20;
77515;PMS5003;66627;29.424;-98.496;2023-06-22T01:22:57;21;20;
77515;PMS5003;66627;29.424;-98.496;2023-06-22T01:25:19;18;18;
77515;PMS5003;66627;29.424;-98.496;2023-06-22T01:27:47;18;18;
77515;PMS5003;66627;29.424;-98.496;2023-06-22T01:30:08;16;16;
77515;PMS5003;66627;29.424;-98.496;2023-06-22T01:32:34;20;20;
77515;PMS5003;66627;29.424;-98.496;2023-06-22T01:35:00;18;18;
77515;PMS5003;66627;29.424;-98.496;2023-06-22T01:37:24;18;16;
77515;PMS5003;66627;29.424;-98.496;2023-06-22T01:39:50;17;17;
77515;PMS5003;66627;29.424;-98.496;2023-06-22T01:42:15;16;14;
77515;PMS5003;66627;29.424;-98.496;2023-06-22T01:44:41;17;14;
77515;PMS5003;66627;29.424;-98.496;2023-06-22T01:47:06;17;16;
77515;PMS5003;66627;29.424;-98.496;2023-06-22T01:49:32;14;14;
77515;PMS5003;66627;29.424;-98.496;2023-06-22T01:51:58;14;13;
77515;PMS5003;66627;29.424;-98.496;2023-06-22T01:54:23;14;13;
77515;PMS5003;66627;29.424;-98.496;2023-06-22T01:56:49;14;14;
77515;PMS5003;66627;29.424;-98.496;2023-06-22T01:59:15;11;11;
77515;PMS5003;66627;29.424;-98.496;2023-06-22T02:01:42;15;14;
77515;PMS5003;66627;29.424;-98.496;2023-06-22T02:04:07;13;13;
77515;PMS5003;66627;29.424;-98.496;2023-06-22T02:06:33;12;12;
77515;PMS5003;66627;29.424;-98.496;2023-06-22T02:08:57;14;12;
77515;PMS5003;66627;29.424;-98.496;2023-06-22T02:11:22;10;10;
77515;PMS5003;66627;29.424;-98.496;2023-06-22T02:13:47;16;15;
77515;PMS5003;66627;29.424;-98.496;2023-06-22T02:16:13;9;9;
77515;PMS5003;66627;29.424;-98.496;2023-06-22T02:18:39;12;11;
77515;PMS5003;66627;29.424;-98.496;2023-06-22T02:21:04;10;10;
77515;PMS5003;66627;29.424;-98.496;2023-06-22T02:23:30;11;10;
77515;PMS5003;66627;29.424;-98.496;2023-06-22T02:25:55;11;11;
77515;PMS5003;66627;29.424;-98.496;2023-06-22T02:28:21;14;13;
77515;PMS5003;66627;29.424;-98.496;2023-06-22T02:30:46;11;10;
77515;PMS5003;66627;29.424;-98.496;2023-06-22T02:33:11;10;10;
77515;PMS5003;66627;29.424;-98.496;2023-06-22T02:35:36;11;11;
77515;PMS5003;66627;29.424;-98.496;2023-06-22T02:38:02;10;10;
77515;PMS5003;66627;29.424;-98.496;2023-06-22T02:40:27;11;8;
77515;PMS5003;66627;29.424;-98.496;2023-06-22T02:42:52;9;9;
77515;PMS5003;66627;29.424;-98.496;2023-06-22T02:45:17;10;10;
77515;PMS5003;66627;29.424;-98.496;2023-06-22T02:47:42;8;8;
77515;PMS5003;66627;29.424;-98.496;2023-06-22T02:50:07;10;8;
77515;PMS5003;66627;29.424;-98.496;2023-06-22T02:52:32;9;9;
77515;PMS5003;66627;29.424;-98.496;2023-06-22T02:54:57;10;10;
77515;PMS5003;66627;29.424;-98.496;2023-06-22T02:57:23;15;11;
77515;PMS5003;66627;29.424;-98.496;2023-06-22T02:59:48;10;10;
77515;PMS5003;66627;29.424;-98.496;2023-06-22T03:02:13;10;10;
77515;PMS5003;66627;29.424;-98.496;2023-06-22T03:04:38;7;7;
77515;PMS5003;66627;29.424;-98.496;2023-06-22T03:07:04;10;9;
77515;PMS5003;66627;29.424;-98.496;2023-06-22T03:09:29;8;8;
77515;PMS5003;66627;29.424;-98.496;2023-06-22T03:11:55;9;9;
77515;PMS5003;66627;29.424;-98.496;2023-06-22T03:14:20;10;9;
77515;PMS5003;66627;29.424;-98.496;2023-06-22T03:16:45;12;9;
77515;PMS5003;66627;29.424;-98.496;2023-06-22T03:19:11;9;9;
77515;PMS5003;66627;29.424;-98.496;2023-06-22T03:21:36;13;11;
77515;PMS5003;66627;29.424;-98.496;2023-06-22T03:24:01;12;9;
77515;PMS5003;66627;29.424;-98.496;2023-06-22T03:26:27;10;9;
77515;PMS5003;66627;29.424;-98.496;2023-06-22T03:28:52;8;8;
77515;PMS5003;66627;29.424;-98.496;2023-06-22T03:31:17;9;9;
77515;PMS5003;66627;29.424;-98.496;2023-06-22T03:33:42;7;7;
77515;PMS5003;66627;29.424;-98.496;2023-06-22T03:36:08;11;11;
77515;PMS5003;66627;29.424;-98.496;2023-06-22T03:38:32;12;10;
77515;PMS5003;66627;29.424;-98.496;2023-06-22T03:40:58;9;9;
77515;PMS5003;66627;29.424;-98.496;2023-06-22T03:43:23;10;8;
77515;PMS5003;66627;29.424;-98.496;2023-06-22T03:45:49;12;9;
77515;PMS5003;66627;29.424;-98.496;2023-06-22T03:48:14;15;14;
77515;PMS5003;66627;29.424;-98.496;2023-06-22T03:50:39;8;8;
77515;PMS5003;66627;29.424;-98.496;2023-06-22T03:53:05;11;10;
77515;PMS5003;66627;29.424;-98.496;2023-06-22T03:55:30;12;11;
77515;PMS5003;66627;29.424;-98.496;2023-06-22T03:57:56;11;11;
77515;PMS5003;66627;29.424;-98.496;2023-06-22T04:00:21;12;12;
77515;PMS5003;66627;29.424;-98.496;2023-06-22T04:02:46;10;10;
77515;PMS5003;66627;29.424;-98.496;2023-06-22T04:05:12;8;8;
77515;PMS5003;66627;29.424;-98.496;2023-06-22T04:07:37;10;10;
77515;PMS5003;66627;29.424;-98.496;2023-06-22T04:10:02;8;8;
77515;PMS5003;66627;29.424;-98.496;2023-06-22T04:12:27;8;8;
77515;PMS5003;66627;29.424;-98.496;2023-06-22T04:14:53;12;10;
77515;PMS5003;66627;29.424;-98.496;2023-06-22T04:17:18;11;11;
77515;PMS5003;66627;29.424;-98.496;2023-06-22T04:19:43;9;9;
77515;PMS5003;66627;29.424;-98.496;2023-06-22T04:22:08;9;9;
77515;PMS5003;66627;29.424;-98.496;2023-06-22T04:24:34;9;9;
77515;PMS5003;66627;29.424;-98.496;2023-06-22T04:26:59;11;11;
77515;PMS5003;66627;29.424;-98.496;2023-06-22T04:29:25;10;10;
77515;PMS5003;66627;29.424;-98.496;2023-06-22T04:31:50;11;11;
77515;PMS5003;66627;29.424;-98.496;2023-06-22T04:34:15;12;12;
77515;PMS5003;66627;29.424;-98.496;2023-06-22T04:36:41;10;10;
77515;PMS5003;66627;29.424;-98.496;2023-06-22T04:39:06;12;12;
77515;PMS5003;66627;29.424;-98.496;2023-06-22T04:41:32;11;11;
77515;PMS5003;66627;29.424;-98.496;2023-06-22T04:43:56;10;10;
77515;PMS5003;66627;29.424;-98.496;2023-06-22T04:46:22;12;12;
77515;PMS5003;66627;29.424;-98.496;2023-06-22T04:48:48;12;12;
77515;PMS5003;66627;29.424;-98.496;2023-06-22T04:51:13;10;10;
77515;PMS5003;66627;29.424;-98.496;2023-06-22T04:53:38;12;12;
77515;PMS5003;66627;29.424;-98.496;2023-06-22T04:56:04;15;13;
77515;PMS5003;66627;29.424;-98.496;2023-06-22T04:58:29;13;11;
77515;PMS5003;66627;29.424;-98.496;2023-06-22T05:00:54;13;10;
77515;PMS5003;66627;29.424;-98.496;2023-06-22T05:03:19;14;13;
77515;PMS5003;66627;29.424;-98.496;2023-06-22T05:05:45;13;13;
77515;PMS5003;66627;29.424;-98.496;2023-06-22T05:08:11;12;10;
77515;PMS5003;66627;29.424;-98.496;2023-06-22T05:10:36;12;12;
77515;PMS5003;66627;29.424;-98.496;2023-06-22T05:13:01;15;12;
77515;PMS5003;66627;29.424;-98.496;2023-06-22T05:15:26;13;13;
77515;PMS5003;66627;29.424;-98.496;2023-06-22T05:17:52;14;12;
77515;PMS5003;66627;29.424;-98.496;2023-06-22T05:20:18;13;12;
77515;PMS5003;66627;29.424;-98.496;2023-06-22T05:22:43;12;12;
77515;PMS5003;66627;29.424;-98.496;2023-06-22T05:25:10;15;14;
77515;PMS5003;66627;29.424;-98.496;2023-06-22T05:27:34;11;11;
77515;PMS5003;66627;29.424;-98.496;2023-06-22T05:30:00;9;9;
77515;PMS5003;66627;29.424;-98.496;2023-06-22T05:32:24;10;10;
77515;PMS5003;66627;29.424;-98.496;2023-06-22T05:34:50;15;14;
77515;PMS5003;66627;29.424;-98.496;2023-06-22T05:37:15;14;14;
77515;PMS5003;66627;29.424;-98.496;2023-06-22T05:39:41;14;14;
77515;PMS5003;66627;29.424;-98.496;2023-06-22T05:42:07;17;14;
77515;PMS5003;66627;29.424;-98.496;2023-06-22T05:44:31;15;14;
77515;PMS5003;66627;29.424;-98.496;2023-06-22T05:46:57;18;16;
77515;PMS5003;66627;29.424;-98.496;2023-06-22T05:49:22;16;16;
77515;PMS5003;66627;29.424;-98.496;2023-06-22T05:51:48;17;17;
77515;PMS5003;66627;29.424;-98.496;2023-06-22T05:54:14;11;11;
77515;PMS5003;66627;29.424;-98.496;2023-06-22T05:56:39;17;16;
77515;PMS5003;66627;29.424;-98.496;2023-06-22T05:59:04;15;14;
77515;PMS5003;66627;29.424;-98.496;2023-06-22T06:01:30;16;15;
77515;PMS5003;66627;29.424;-98.496;2023-06-22T06:03:56;15;14;
77515;PMS5003;66627;29.424;-98.496;2023-06-22T06:06:21;15;15;
77515;PMS5003;66627;29.424;-98.496;2023-06-22T06:08:49;14;14;
77515;PMS5003;66627;29.424;-98.496;2023-06-22T06:11:13;12;11;
77515;PMS5003;66627;29.424;-98.496;2023-06-22T06:13:38;15;14;
77515;PMS5003;66627;29.424;-98.496;2023-06-22T06:16:03;13;13;
77515;PMS5003;66627;29.424;-98.496;2023-06-22T06:18:29;13;13;
77515;PMS5003;66627;29.424;-98.496;2023-06-22T06:20:54;11;10;
77515;PMS5003;66627;29.424;-98.496;2023-06-22T06:23:20;18;17;
77515;PMS5003;66627;29.424;-98.496;2023-06-22T06:25:45;14;14;
77515;PMS5003;66627;29.424;-98.496;2023-06-22T06:28:10;12;12;
77515;PMS5003;66627;29.424;-98.496;2023-06-22T06:30:35;13;12;
77515;PMS5003;66627;29.424;-98.496;2023-06-22T06:33:01;11;11;
77515;PMS5003;66627;29.424;-98.496;2023-06-22T06:35:25;15;13;
77515;PMS5003;66627;29.424;-98.496;2023-06-22T06:37:51;13;13;
77515;PMS5003;66627;29.424;-98.496;2023-06-22T06:40:17;14;11;
77515;PMS5003;66627;29.424;-98.496;2023-06-22T06:42:42;13;12;
77515;PMS5003;66627;29.424;-98.496;2023-06-22T06:45:07;19;16;
77515;PMS5003;66627;29.424;-98.496;2023-06-22T06:47:32;17;14;
77515;PMS5003;66627;29.424;-98.496;2023-06-22T06:49:58;12;12;
77515;PMS5003;66627;29.424;-98.496;2023-06-22T06:52:23;13;13;
77515;PMS5003;66627;29.424;-98.496;2023-06-22T06:54:48;14;14;
77515;PMS5003;66627;29.424;-98.496;2023-06-22T06:57:14;16;14;
77515;PMS5003;66627;29.424;-98.496;2023-06-22T06:59:39;16;16;
77515;PMS5003;66627;29.424;-98.496;2023-06-22T07:02:04;14;14;
77515;PMS5003;66627;29.424;-98.496;2023-06-22T07:04:29;12;12;
77515;PMS5003;66627;29.424;-98.496;2023-06-22T07:06:55;13;13;
77515;PMS5003;66627;29.424;-98.496;2023-06-22T07:09:20;12;11;
77515;PMS5003;66627;29.424;-98.496;2023-06-22T07:11:46;13;13;
77515;PMS5003;66627;29.424;-98.496;2023-06-22T07:14:11;14;14;
77515;PMS5003;66627;29.424;-98.496;2023-06-22T07:16:37;14;14;
77515;PMS5003;66627;29.424;-98.496;2023-06-22T07:19:03;11;11;
77515;PMS5003;66627;29.424;-98.496;2023-06-22T07:21:28;12;12;
77515;PMS5003;66627;29.424;-98.496;2023-06-22T07:23:53;15;15;
77515;PMS5003;66627;29.424;-98.496;2023-06-22T07:26:19;13;12;
77515;PMS5003;66627;29.424;-98.496;2023-06-22T07:28:44;12;12;
77515;PMS5003;66627;29.424;-98.496;2023-06-22T07:31:09;11;11;
77515;PMS5003;66627;29.424;-98.496;2023-06-22T07:33:34;14;13;
77515;PMS5003;66627;29.424;-98.496;2023-06-22T07:36:00;13;13;
77515;PMS5003;66627;29.424;-98.496;2023-06-22T07:38:26;12;12;
77515;PMS5003;66627;29.424;-98.496;2023-06-22T07:40:51;15;15;
77515;PMS5003;66627;29.424;-98.496;2023-06-22T07:43:16;16;15;
77515;PMS5003;66627;29.424;-98.496;2023-06-22T07:48:07;14;12;
77515;PMS5003;66627;29.424;-98.496;2023-06-22T07:50:33;12;12;
77515;PMS5003;66627;29.424;-98.496;2023-06-22T07:52:58;15;14;
77515;PMS5003;66627;29.424;-98.496;2023-06-22T07:55:23;16;16;
77515;PMS5003;66627;29.424;-98.496;2023-06-22T07:57:49;14;14;
77515;PMS5003;66627;29.424;-98.496;2023-06-22T08:00:14;12;11;
77515;PMS5003;66627;29.424;-98.496;2023-06-22T08:02:40;11;11;
77515;PMS5003;66627;29.424;-98.496;2023-06-22T08:05:06;10;10;
77515;PMS5003;66627;29.424;-98.496;2023-06-22T08:07:32;13;13;
77515;PMS5003;66627;29.424;-98.496;2023-06-22T08:09:57;18;16;
77515;PMS5003;66627;29.424;-98.496;2023-06-22T08:12:22;20;16;
77515;PMS5003;66627;29.424;-98.496;2023-06-22T08:14:48;12;12;
77515;PMS5003;66627;29.424;-98.496;2023-06-22T08:17:14;15;15;
77515;PMS5003;66627;29.424;-98.496;2023-06-22T08:19:40;13;13;
77515;PMS5003;66627;29.424;-98.496;2023-06-22T08:22:05;15;15;
77515;PMS5003;66627;29.424;-98.496;2023-06-22T08:24:30;13;11;
77515;PMS5003;66627;29.424;-98.496;2023-06-22T08:26:56;15;15;
77515;PMS5003;66627;29.424;-98.496;2023-06-22T08:29:21;12;12;
77515;PMS5003;66627;29.424;-98.496;2023-06-22T08:31:46;13;13;
77515;PMS5003;66627;29.424;-98.496;2023-06-22T08:34:12;11;11;
77515;PMS5003;66627;29.424;-98.496;2023-06-22T08:36:38;13;13;
77515;PMS5003;66627;29.424;-98.496;2023-06-22T08:39:04;13;13;
77515;PMS5003;66627;29.424;-98.496;2023-06-22T08:41:28;12;12;
77515;PMS5003;66627;29.424;-98.496;2023-06-22T08:43:54;13;13;
77515;PMS5003;66627;29.424;-98.496;2023-06-22T08:46:19;13;13;
77515;PMS5003;66627;29.424;-98.496;2023-06-22T08:48:45;12;12;
77515;PMS5003;66627;29.424;-98.496;2023-06-22T08:51:10;11;11;
77515;PMS5003;66627;29.424;-98.496;2023-06-22T08:53:36;15;14;
77515;PMS5003;66627;29.424;-98.496;2023-06-22T08:56:02;13;13;
77515;PMS5003;66627;29.424;-98.496;2023-06-22T08:58:26;10;10;
77515;PMS5003;66627;29.424;-98.496;2023-06-22T09:00:52;12;11;
77515;PMS5003;66627;29.424;-98.496;2023-06-22T09:03:17;14;11;
77515;PMS5003;66627;29.424;-98.496;2023-06-22T09:05:42;11;11;
77515;PMS5003;66627;29.424;-98.496;2023-06-22T09:08:07;8;8;
77515;PMS5003;66627;29.424;-98.496;2023-06-22T09:10:33;11;11;
77515;PMS5003;66627;29.424;-98.496;2023-06-22T09:12:58;14;12;
77515;PMS5003;66627;29.424;-98.496;2023-06-22T09:15:23;13;11;
77515;PMS5003;66627;29.424;-98.496;2023-06-22T09:17:49;11;9;
77515;PMS5003;66627;29.424;-98.496;2023-06-22T09:20:14;11;10;
77515;PMS5003;66627;29.424;-98.496;2023-06-22T09:22:39;12;11;
77515;PMS5003;66627;29.424;-98.496;2023-06-22T09:25:05;12;12;
77515;PMS5003;66627;29.424;-98.496;2023-06-22T09:27:29;11;11;
77515;PMS5003;66627;29.424;-98.496;2023-06-22T09:29:57;12;12;
77515;PMS5003;66627;29.424;-98.496;2023-06-22T09:32:20;15;13;
77515;PMS5003;66627;29.424;-98.496;2023-06-22T09:34:46;13;11;
77515;PMS5003;66627;29.424;-98.496;2023-06-22T09:37:11;12;10;
77515;PMS5003;66627;29.424;-98.496;2023-06-22T09:39:38;13;13;
77515;PMS5003;66627;29.424;-98.496;2023-06-22T09:42:09;12;12;
77515;PMS5003;66627;29.424;-98.496;2023-06-22T09:44:27;12;11;
77515;PMS5003;66627;29.424;-98.496;2023-06-22T09:46:53;10;9;
77515;PMS5003;66627;29.424;-98.496;2023-06-22T09:49:18;12;11;
77515;PMS5003;66627;29.424;-98.496;2023-06-22T09:51:44;13;12;
77515;PMS5003;66627;29.424;-98.496;2023-06-22T09:54:09;12;11;
77515;PMS5003;66627;29.424;-98.496;2023-06-22T09:56:35;12;12;
77515;PMS5003;66627;29.424;-98.496;2023-06-22T09:59:00;12;12;
77515;PMS5003;66627;29.424;-98.496;2023-06-22T10:01:25;12;12;
77515;PMS5003;66627;29.424;-98.496;2023-06-22T10:03:52;13;13;
77515;PMS5003;66627;29.424;-98.496;2023-06-22T10:06:16;10;10;
77515;PMS5003;66627;29.424;-98.496;2023-06-22T10:08:42;11;11;
77515;PMS5003;66627;29.424;-98.496;2023-06-22T10:11:08;9;9;
77515;PMS5003;66627;29.424;-98.496;2023-06-22T10:13:33;10;10;
77515;PMS5003;66627;29.424;-98.496;2023-06-22T10:15:58;12;10;
77515;PMS5003;66627;29.424;-98.496;2023-06-22T10:18:23;12;11;
77515;PMS5003;66627;29.424;-98.496;2023-06-22T10:20:49;15;14;
77515;PMS5003;66627;29.424;-98.496;2023-06-22T10:23:13;15;13;
77515;PMS5003;66627;29.424;-98.496;2023-06-22T10:25:40;11;11;
77515;PMS5003;66627;29.424;-98.496;2023-06-22T10:28:04;11;11;
77515;PMS5003;66627;29.424;-98.496;2023-06-22T10:30:30;14;12;
77515;PMS5003;66627;29.424;-98.496;2023-06-22T10:32:55;9;8;
77515;PMS5003;66627;29.424;-98.496;2023-06-22T10:35:20;12;12;
77515;PMS5003;66627;29.424;-98.496;2023-06-22T10:37:45;10;10;
77515;PMS5003;66627;29.424;-98.496;2023-06-22T10:40:12;13;12;
77515;PMS5003;66627;29.424;-98.496;2023-06-22T10:42:36;13;13;
77515;PMS5003;66627;29.424;-98.496;2023-06-22T10:45:01;13;13;
77515;PMS5003;66627;29.424;-98.496;2023-06-22T10:47:26;15;14;
77515;PMS5003;66627;29.424;-98.496;2023-06-22T10:49:52;14;12;
77515;PMS5003;66627;29.424;-98.496;2023-06-22T10:52:18;14;12;
77515;PMS5003;66627;29.424;-98.496;2023-06-22T10:54:42;16;16;
77515;PMS5003;66627;29.424;-98.496;2023-06-22T10:57:07;15;13;
77515;PMS5003;66627;29.424;-98.496;2023-06-22T10:59:33;12;12;
77515;PMS5003;66627;29.424;-98.496;2023-06-22T11:01:59;12;12;
77515;PMS5003;66627;29.424;-98.496;2023-06-22T11:04:24;15;13;
77515;PMS5003;66627;29.424;-98.496;2023-06-22T11:06:49;19;19;
77515;PMS5003;66627;29.424;-98.496;2023-06-22T11:09:14;17;16;
77515;PMS5003;66627;29.424;-98.496;2023-06-22T11:11:39;20;18;
77515;PMS5003;66627;29.424;-98.496;2023-06-22T11:14:05;15;14;
77515;PMS5003;66627;29.424;-98.496;2023-06-22T11:16:30;17;17;
77515;PMS5003;66627;29.424;-98.496;2023-06-22T11:18:56;17;16;
77515;PMS5003;66627;29.424;-98.496;2023-06-22T11:21:20;20;18;
77515;PMS5003;66627;29.424;-98.496;2023-06-22T11:23:46;15;15;
77515;PMS5003;66627;29.424;-98.496;2023-06-22T11:26:11;16;15;
77515;PMS5003;66627;29.424;-98.496;2023-06-22T11:28:37;16;15;
77515;PMS5003;66627;29.424;-98.496;2023-06-22T11:31:03;14;14;
77515;PMS5003;66627;29.424;-98.496;2023-06-22T11:33:28;17;15;
77515;PMS5003;66627;29.424;-98.496;2023-06-22T11:35:53;15;13;
77515;PMS5003;66627;29.424;-98.496;2023-06-22T11:38:19;15;15;
77515;PMS5003;66627;29.424;-98.496;2023-06-22T11:40:44;17;16;
77515;PMS5003;66627;29.424;-98.496;2023-06-22T11:43:09;16;15;
77515;PMS5003;66627;29.424;-98.496;2023-06-22T11:45:35;18;18;
77515;PMS5003;66627;29.424;-98.496;2023-06-22T11:48:00;18;18;
77515;PMS5003;66627;29.424;-98.496;2023-06-22T11:50:26;19;19;
77515;PMS5003;66627;29.424;-98.496;2023-06-22T11:52:51;18;16;
77515;PMS5003;66627;29.424;-98.496;2023-06-22T11:55:16;15;14;
77515;PMS5003;66627;29.424;-98.496;2023-06-22T12:00:08;15;15;
77515;PMS5003;66627;29.424;-98.496;2023-06-22T12:02:34;18;13;
77515;PMS5003;66627;29.424;-98.496;2023-06-22T12:04:59;16;16;
77515;PMS5003;66627;29.424;-98.496;2023-06-22T12:07:24;16;16;
77515;PMS5003;66627;29.424;-98.496;2023-06-22T12:09:50;16;16;
77515;PMS5003;66627;29.424;-98.496;2023-06-22T12:12:16;19;16;
77515;PMS5003;66627;29.424;-98.496;2023-06-22T12:14:41;20;18;
77515;PMS5003;66627;29.424;-98.496;2023-06-22T12:17:07;15;15;
77515;PMS5003;66627;29.424;-98.496;2023-06-22T12:19:32;17;17;
77515;PMS5003;66627;29.424;-98.496;2023-06-22T12:21:57;17;15;
77515;PMS5003;66627;29.424;-98.496;2023-06-22T12:24:23;15;15;
77515;PMS5003;66627;29.424;-98.496;2023-06-22T12:26:48;14;13;
77515;PMS5003;66627;29.424;-98.496;2023-06-22T12:29:13;15;14;
77515;PMS5003;66627;29.424;-98.496;2023-06-22T12:31:38;17;17;
77515;PMS5003;66627;29.424;-98.496;2023-06-22T12:34:03;20;19;
77515;PMS5003;66627;29.424;-98.496;2023-06-22T12:36:28;17;17;
77515;PMS5003;66627;29.424;-98.496;2023-06-22T12:38:54;16;15;
77515;PMS5003;66627;29.424;-98.496;2023-06-22T12:41:19;20;17;
77515;PMS5003;66627;29.424;-98.496;2023-06-22T12:43:46;18;16;
77515;PMS5003;66627;29.424;-98.496;2023-06-22T12:46:10;16;16;
77515;PMS5003;66627;29.424;-98.496;2023-06-22T12:48:35;20;18;
77515;PMS5003;66627;29.424;-98.496;2023-06-22T12:51:00;15;13;
77515;PMS5003;66627;29.424;-98.496;2023-06-22T12:53:25;16;16;
77515;PMS5003;66627;29.424;-98.496;2023-06-22T12:55:51;16;13;
77515;PMS5003;66627;29.424;-98.496;2023-06-22T12:58:17;17;17;
77515;PMS5003;66627;29.424;-98.496;2023-06-22T13:00:42;17;15;
77515;PMS5003;66627;29.424;-98.496;2023-06-22T13:03:07;18;16;
77515;PMS5003;66627;29.424;-98.496;2023-06-22T13:05:33;14;13;
77515;PMS5003;66627;29.424;-98.496;2023-06-22T13:07:58;14;14;
77515;PMS5003;66627;29.424;-98.496;2023-06-22T13:10:24;13;13;
77515;PMS5003;66627;29.424;-98.496;2023-06-22T13:12:49;12;12;
77515;PMS5003;66627;29.424;-98.496;2023-06-22T13:15:15;16;15;
77515;PMS5003;66627;29.424;-98.496;2023-06-22T13:17:41;18;16;
77515;PMS5003;66627;29.424;-98.496;2023-06-22T13:20:06;15;14;
77515;PMS5003;66627;29.424;-98.496;2023-06-22T13:22:32;12;12;
77515;PMS5003;66627;29.424;-98.496;2023-06-22T13:24:57;12;12;
77515;PMS5003;66627;29.424;-98.496;2023-06-22T13:27:22;16;15;
77515;PMS5003;66627;29.424;-98.496;2023-06-22T13:29:47;16;16;
77515;PMS5003;66627;29.424;-98.496;2023-06-22T13:32:13;15;15;
77515;PMS5003;66627;29.424;-98.496;2023-06-22T13:34:39;16;13;
77515;PMS5003;66627;29.424;-98.496;2023-06-22T13:37:04;20;16;
77515;PMS5003;66627;29.424;-98.496;2023-06-22T13:39:30;14;14;
77515;PMS5003;66627;29.424;-98.496;2023-06-22T13:41:56;15;14;
77515;PMS5003;66627;29.424;-98.496;2023-06-22T13:44:21;10;10;
77515;PMS5003;66627;29.424;-98.496;2023-06-22T13:46:46;14;14;
77515;PMS5003;66627;29.424;-98.496;2023-06-22T13:49:11;14;14;
77515;PMS5003;66627;29.424;-98.496;2023-06-22T13:51:37;14;14;
77515;PMS5003;66627;29.424;-98.496;2023-06-22T13:54:02;16;15;
77515;PMS5003;66627;29.424;-98.496;2023-06-22T13:56:27;13;13;
77515;PMS5003;66627;29.424;-98.496;2023-06-22T13:58:53;12;12;
77515;PMS5003;66627;29.424;-98.496;2023-06-22T14:01:18;13;13;
77515;PMS5003;66627;29.424;-98.496;2023-06-22T14:03:43;14;11;
77515;PMS5003;66627;29.424;-98.496;2023-06-22T14:06:09;12;12;
77515;PMS5003;66627;29.424;-98.496;2023-06-22T14:08:35;14;13;
77515;PMS5003;66627;29.424;-98.496;2023-06-22T14:11:00;13;13;
77515;PMS5003;66627;29.424;-98.496;2023-06-22T14:13:26;12;12;
77515;PMS5003;66627;29.424;-98.496;2023-06-22T14:15:51;14;14;
77515;PMS5003;66627;29.424;-98.496;2023-06-22T14:18:17;12;11;
77515;PMS5003;66627;29.424;-98.496;2023-06-22T14:20:42;15;15;
77515;PMS5003;66627;29.424;-98.496;2023-06-22T14:23:08;15;15;
77515;PMS5003;66627;29.424;-98.496;2023-06-22T14:25:33;13;13;
77515;PMS5003;66627;29.424;-98.496;2023-06-22T14:27:58;12;11;
77515;PMS5003;66627;29.424;-98.496;2023-06-22T14:30:23;13;12;
77515;PMS5003;66627;29.424;-98.496;2023-06-22T14:32:49;14;12;
77515;PMS5003;66627;29.424;-98.496;2023-06-22T14:35:14;13;13;
77515;PMS5003;66627;29.424;-98.496;2023-06-22T14:37:39;14;13;
77515;PMS5003;66627;29.424;-98.496;2023-06-22T14:40:05;11;10;
77515;PMS5003;66627;29.424;-98.496;2023-06-22T14:42:30;14;12;
77515;PMS5003;66627;29.424;-98.496;2023-06-22T14:44:56;15;14;
77515;PMS5003;66627;29.424;-98.496;2023-06-22T14:47:21;14;14;
77515;PMS5003;66627;29.424;-98.496;2023-06-22T14:49:48;13;13;
77515;PMS5003;66627;29.424;-98.496;2023-06-22T14:52:12;12;11;
77515;PMS5003;66627;29.424;-98.496;2023-06-22T14:54:38;12;12;
77515;PMS5003;66627;29.424;-98.496;2023-06-22T14:57:03;10;10;
77515;PMS5003;66627;29.424;-98.496;2023-06-22T14:59:29;11;11;
77515;PMS5003;66627;29.424;-98.496;2023-06-22T15:01:54;13;13;
77515;PMS5003;66627;29.424;-98.496;2023-06-22T15:04:19;13;13;
77515;PMS5003;66627;29.424;-98.496;2023-06-22T15:06:45;12;12;
77515;PMS5003;66627;29.424;-98.496;2023-06-22T15:09:10;15;13;
77515;PMS5003;66627;29.424;-98.496;2023-06-22T15:11:35;13;13;
77515;PMS5003;66627;29.424;-98.496;2023-06-22T15:14:00;12;12;
77515;PMS5003;66627;29.424;-98.496;2023-06-22T15:16:25;12;12;
77515;PMS5003;66627;29.424;-98.496;2023-06-22T15:18:51;11;11;
77515;PMS5003;66627;29.424;-98.496;2023-06-22T15:21:16;11;11;
77515;PMS5003;66627;29.424;-98.496;2023-06-22T15:23:41;13;13;
77515;PMS5003;66627;29.424;-98.496;2023-06-22T15:26:07;14;14;
77515;PMS5003;66627;29.424;-98.496;2023-06-22T15:28:32;19;16;
77515;PMS5003;66627;29.424;-98.496;2023-06-22T15:30:58;45;45;
77515;PMS5003;66627;29.424;-98.496;2023-06-22T15:33:24;19;19;
77515;PMS5003;66627;29.424;-98.496;2023-06-22T15:35:48;16;16;
77515;PMS5003;66627;29.424;-98.496;2023-06-22T15:38:13;16;13;
77515;PMS5003;66627;29.424;-98.496;2023-06-22T15:40:39;16;15;